createdAt,value
2019-02-16T00:01:19.189Z,6.90
2019-02-16T00:03:54.432Z,6.90
2019-02-16T00:06:29.583Z,6.90
2019-02-16T00:09:05.529Z,6.90
2019-02-16T00:11:40.816Z,6.90
2019-02-16T00:14:16.127Z,6.90
2019-02-16T00:16:51.276Z,6.80
2019-02-16T00:19:26.499Z,6.80
2019-02-16T00:22:01.556Z,6.80
2019-02-16T00:24:36.781Z,6.80
2019-02-16T00:27:11.927Z,6.80
2019-02-16T00:29:47.157Z,6.80
2019-02-16T00:32:22.369Z,6.80
2019-02-16T00:34:57.601Z,6.80
2019-02-16T00:37:32.819Z,6.80
2019-02-16T00:40:08.427Z,6.80
2019-02-16T00:42:43.669Z,6.80
2019-02-16T00:45:18.844Z,6.70
2019-02-16T00:47:54.049Z,6.70
2019-02-16T00:50:29.240Z,6.70
2019-02-16T00:53:07.430Z,6.70
2019-02-16T00:55:45.843Z,6.70
2019-02-16T00:58:21.130Z,6.70
2019-02-16T01:00:56.367Z,6.70
2019-02-16T01:03:31.587Z,6.60
2019-02-16T01:06:06.873Z,6.60
2019-02-16T01:08:42.153Z,6.60
2019-02-16T01:11:17.384Z,6.60
2019-02-16T01:13:52.579Z,6.60
2019-02-16T01:16:27.794Z,6.60
2019-02-16T01:19:03.029Z,6.60
2019-02-16T01:21:38.319Z,6.60
2019-02-16T01:24:13.613Z,6.60
2019-02-16T01:26:48.757Z,6.50
2019-02-16T01:29:23.963Z,6.50
2019-02-16T01:31:59.121Z,6.50
2019-02-16T01:34:34.253Z,6.50
2019-02-16T01:37:09.440Z,6.50
2019-02-16T01:39:44.714Z,6.50
2019-02-16T01:42:19.938Z,6.50
2019-02-16T01:44:55.076Z,6.50
2019-02-16T01:47:30.312Z,6.50
2019-02-16T01:50:06.333Z,6.50
2019-02-16T01:52:41.472Z,6.50
2019-02-16T01:55:16.596Z,6.50
2019-02-16T01:57:51.780Z,6.50
2019-02-16T02:00:27.026Z,6.50
2019-02-16T02:03:02.440Z,6.40
2019-02-16T02:05:37.727Z,6.40
2019-02-16T02:08:13.008Z,6.40
2019-02-16T02:10:48.151Z,6.40
2019-02-16T02:13:23.399Z,6.40
2019-02-16T02:15:58.605Z,6.40
2019-02-16T02:18:34.012Z,6.40
2019-02-16T02:21:09.184Z,6.40
2019-02-16T02:23:44.316Z,6.30
2019-02-16T02:26:19.458Z,6.30
2019-02-16T02:28:54.626Z,6.30
2019-02-16T02:31:29.834Z,6.30
2019-02-16T02:34:05.066Z,6.30
2019-02-16T02:36:40.338Z,6.30
2019-02-16T02:39:15.515Z,6.30
2019-02-16T02:41:50.785Z,6.30
2019-02-16T02:44:26.098Z,6.30
2019-02-16T02:47:01.313Z,6.30
2019-02-16T02:49:36.679Z,6.30
2019-02-16T02:52:11.909Z,6.30
2019-02-16T02:54:47.125Z,6.30
2019-02-16T02:57:22.274Z,6.30
2019-02-16T02:59:57.578Z,6.30
2019-02-16T03:02:32.872Z,6.30
2019-02-16T03:05:09.277Z,6.30
2019-02-16T03:07:44.556Z,6.30
2019-02-16T03:10:19.811Z,6.20
2019-02-16T03:12:55.103Z,6.20
2019-02-16T03:15:30.287Z,6.20
2019-02-16T03:18:05.547Z,6.20
2019-02-16T03:20:40.775Z,6.20
2019-02-16T03:23:20.717Z,6.20
2019-02-16T03:26:26.838Z,6.20
2019-02-16T03:29:32.136Z,6.20
2019-02-16T03:32:36.878Z,6.10
2019-02-16T03:35:51.724Z,6.10
2019-02-16T03:38:51.986Z,6.10
2019-02-16T03:41:27.274Z,6.10
2019-02-16T03:44:02.517Z,6.00
2019-02-16T03:46:37.922Z,6.00
2019-02-16T03:49:13.171Z,6.00
2019-02-16T03:51:48.453Z,5.90
2019-02-16T03:54:23.701Z,5.90
2019-02-16T03:56:58.924Z,5.80
2019-02-16T03:59:34.213Z,5.90
2019-02-16T04:02:09.349Z,5.80
2019-02-16T04:04:44.510Z,5.80
2019-02-16T04:07:19.735Z,5.80
2019-02-16T04:09:55.053Z,5.80
2019-02-16T04:12:30.190Z,5.80
2019-02-16T04:15:05.429Z,5.80
2019-02-16T04:17:40.573Z,5.80
2019-02-16T04:20:15.708Z,5.80
2019-02-16T04:22:50.841Z,5.80
2019-02-16T04:25:26.043Z,5.80
2019-02-16T04:28:01.241Z,5.80
2019-02-16T04:30:36.483Z,5.70
2019-02-16T04:33:11.683Z,5.70
2019-02-16T04:35:46.996Z,5.70
2019-02-16T04:38:22.214Z,5.70
2019-02-16T04:40:57.536Z,5.70
2019-02-16T04:43:32.745Z,5.70
2019-02-16T04:46:07.968Z,5.60
2019-02-16T04:48:43.117Z,5.60
2019-02-16T04:51:18.345Z,5.60
2019-02-16T04:53:53.485Z,5.60
2019-02-16T04:56:28.810Z,5.60
2019-02-16T04:59:04.084Z,5.60
2019-02-16T05:01:39.259Z,5.60
2019-02-16T05:04:14.857Z,5.60
2019-02-16T05:06:50.164Z,5.60
2019-02-16T05:09:25.367Z,5.60
2019-02-16T05:12:00.613Z,5.50
2019-02-16T05:14:35.892Z,5.50
2019-02-16T05:17:11.180Z,5.50
2019-02-16T05:19:46.485Z,5.50
2019-02-16T05:22:21.803Z,5.50
2019-02-16T05:24:57.006Z,5.50
2019-02-16T05:27:32.214Z,5.50
2019-02-16T05:30:07.387Z,5.50
2019-02-16T05:32:42.628Z,5.50
2019-02-16T05:35:17.923Z,5.50
2019-02-16T05:37:53.156Z,5.50
2019-02-16T05:40:28.398Z,5.50
2019-02-16T05:43:03.737Z,5.50
2019-02-16T05:45:38.870Z,5.40
2019-02-16T05:48:14.031Z,5.40
2019-02-16T05:50:49.316Z,5.40
2019-02-16T05:53:24.494Z,5.40
2019-02-16T05:55:59.648Z,5.40
2019-02-16T05:58:35.172Z,5.40
2019-02-16T06:01:10.386Z,5.40
2019-02-16T06:03:45.549Z,5.40
2019-02-16T06:06:20.894Z,5.40
2019-02-16T06:08:56.325Z,5.40
2019-02-16T06:11:31.632Z,5.40
2019-02-16T06:14:06.878Z,5.40
2019-02-16T06:16:42.096Z,5.40
2019-02-16T06:19:17.389Z,5.40
2019-02-16T06:21:52.557Z,5.40
2019-02-16T06:24:27.869Z,5.40
2019-02-16T06:27:03.082Z,5.40
2019-02-16T06:29:38.564Z,5.40
2019-02-16T06:32:13.788Z,5.40
2019-02-16T06:34:51.430Z,5.40
2019-02-16T06:37:26.603Z,5.40
2019-02-16T06:40:01.919Z,5.30
2019-02-16T06:42:37.212Z,5.30
2019-02-16T06:45:12.533Z,5.30
2019-02-16T06:47:47.757Z,5.30
2019-02-16T06:50:22.920Z,5.30
2019-02-16T06:52:58.200Z,5.30
2019-02-16T06:56:07.728Z,5.30
2019-02-16T06:58:42.958Z,5.30
2019-02-16T07:01:18.274Z,5.30
2019-02-16T07:03:53.576Z,5.30
2019-02-16T07:06:28.729Z,5.30
2019-02-16T07:09:05.503Z,5.30
2019-02-16T07:11:40.730Z,5.30
2019-02-16T07:14:15.947Z,5.30
2019-02-16T07:17:03.404Z,5.30
2019-02-16T07:19:42.640Z,5.40
2019-02-16T07:22:17.871Z,5.40
2019-02-16T07:24:53.007Z,5.40
2019-02-16T07:27:28.344Z,5.40
2019-02-16T07:30:03.504Z,5.40
2019-02-16T07:32:38.801Z,5.50
2019-02-16T07:35:14.020Z,5.50
2019-02-16T07:37:49.235Z,5.60
2019-02-16T07:40:24.563Z,5.60
2019-02-16T07:42:59.846Z,5.70
2019-02-16T07:45:57.068Z,5.80
2019-02-16T07:48:54.249Z,5.90
2019-02-16T07:51:40.961Z,6.00
2019-02-16T07:54:34.018Z,6.10
2019-02-16T07:57:24.166Z,6.20
2019-02-16T08:00:24.473Z,6.30
2019-02-16T08:03:05.758Z,6.40
2019-02-16T08:05:55.477Z,6.50
2019-02-16T08:08:58.880Z,6.60
2019-02-16T08:11:56.186Z,6.80
2019-02-16T08:14:50.417Z,6.90
2019-02-16T08:17:50.577Z,7.10
2019-02-16T08:20:54.148Z,7.20
2019-02-16T08:23:51.152Z,7.40
2019-02-16T08:26:44.273Z,7.50
2019-02-16T08:29:30.806Z,7.60
2019-02-16T08:32:43.434Z,7.70
2019-02-16T08:35:34.785Z,7.80
2019-02-16T08:38:28.017Z,7.90
2019-02-16T08:41:21.258Z,8.00
2019-02-16T08:44:19.785Z,8.20
2019-02-16T08:47:07.430Z,8.30
2019-02-16T08:50:07.764Z,8.30
2019-02-16T08:53:08.145Z,8.40
2019-02-16T08:55:59.545Z,8.60
2019-02-16T08:58:40.372Z,8.70
2019-02-16T09:01:34.679Z,8.80
2019-02-16T09:04:37.939Z,8.90
2019-02-16T09:07:30.964Z,9.00
2019-02-16T09:10:13.874Z,9.10
2019-02-16T09:13:03.508Z,9.20
2019-02-16T09:16:04.159Z,9.30
2019-02-16T09:18:58.312Z,9.40
2019-02-16T09:21:55.566Z,9.50
2019-02-16T09:24:38.201Z,9.50
2019-02-16T09:27:30.581Z,9.50
2019-02-16T09:30:32.475Z,9.60
2019-02-16T09:33:35.850Z,9.70
2019-02-16T09:36:22.308Z,9.80
2019-02-16T09:39:31.828Z,9.90
2019-02-16T09:42:28.741Z,9.90
2019-02-16T09:45:29.278Z,10.00
2019-02-16T09:48:16.361Z,10.10
2019-02-16T09:51:07.210Z,10.20
2019-02-16T09:53:55.604Z,10.40
2019-02-16T09:56:52.524Z,10.50
2019-02-16T09:59:55.627Z,10.60
2019-02-16T10:02:59.252Z,10.70
2019-02-16T10:05:48.228Z,10.90
2019-02-16T10:08:33.602Z,11.10
2019-02-16T10:11:43.241Z,11.20
2019-02-16T10:14:37.482Z,11.40
2019-02-16T10:17:30.980Z,11.50
2019-02-16T10:20:24.061Z,11.70
2019-02-16T10:23:17.122Z,11.90
2019-02-16T10:26:11.271Z,12.10
2019-02-16T10:28:54.233Z,12.20
2019-02-16T10:31:41.201Z,12.30
2019-02-16T10:34:35.504Z,12.40
2019-02-16T13:35:32.759Z,16.50
2019-02-16T13:38:26.812Z,16.40
2019-02-16T13:41:30.266Z,16.40
2019-02-16T13:44:15.002Z,16.40
2019-02-16T13:47:12.247Z,16.40
2019-02-16T13:49:53.809Z,16.30
2019-02-16T13:52:37.968Z,16.40
2019-02-16T13:55:33.025Z,16.30
2019-02-16T13:58:14.580Z,16.30
2019-02-16T14:01:04.192Z,16.30
2019-02-16T14:03:53.750Z,16.20
2019-02-16T14:07:00.085Z,16.20
2019-02-16T14:09:46.060Z,16.20
2019-02-16T14:12:58.601Z,16.20
2019-02-16T14:15:42.074Z,16.10
2019-02-16T14:18:17.270Z,16.10
2019-02-16T14:20:52.486Z,16.00
2019-02-16T14:23:28.497Z,16.00
2019-02-16T14:26:03.913Z,15.90
2019-02-16T14:28:39.053Z,15.90
2019-02-16T14:31:15.780Z,15.80
2019-02-16T14:33:50.924Z,15.80
2019-02-16T14:36:26.161Z,15.70
2019-02-16T14:39:25.972Z,15.70
2019-02-16T14:42:01.273Z,15.60
2019-02-16T14:44:36.420Z,15.50
2019-02-16T14:47:11.650Z,15.50
2019-02-16T14:49:46.928Z,15.40
2019-02-16T14:52:22.093Z,15.40
2019-02-16T14:54:57.304Z,15.30
2019-02-16T14:57:32.622Z,15.20
2019-02-16T15:00:08.785Z,15.10
2019-02-16T15:02:44.027Z,15.10
2019-02-16T15:05:19.235Z,15.00
2019-02-16T15:07:54.485Z,14.90
2019-02-16T15:10:29.784Z,14.80
2019-02-16T15:13:04.962Z,14.80
2019-02-16T15:15:40.237Z,14.70
2019-02-16T15:18:34.395Z,14.70
2019-02-16T15:21:09.543Z,14.60
2019-02-16T15:23:44.865Z,14.50
2019-02-16T15:26:28.127Z,14.40
2019-02-16T15:28:56.990Z,14.30
2019-02-16T15:31:32.202Z,14.30
2019-02-16T15:34:07.445Z,14.20
2019-02-16T15:36:42.626Z,14.10
2019-02-16T15:39:17.857Z,14.00
2019-02-16T15:41:52.996Z,13.90
2019-02-16T15:44:28.241Z,13.80
2019-02-16T15:47:03.470Z,13.80
2019-02-16T15:49:38.644Z,13.70
2019-02-16T15:52:13.865Z,13.60
2019-02-16T15:54:49.096Z,13.50
2019-02-16T15:57:24.373Z,13.50
2019-02-16T15:59:59.703Z,13.40
2019-02-16T16:02:35.297Z,13.30
2019-02-16T16:05:10.546Z,13.20
2019-02-16T16:07:49.338Z,13.20
2019-02-16T16:11:02.018Z,13.10
2019-02-16T16:13:58.097Z,13.00
2019-02-16T16:16:42.365Z,12.80
2019-02-16T16:19:23.409Z,12.80
2019-02-16T16:22:23.808Z,12.70
2019-02-16T16:25:21.029Z,12.60
2019-02-16T16:28:11.291Z,12.50
2019-02-16T16:30:52.470Z,12.40
2019-02-16T16:33:45.684Z,12.30
2019-02-16T16:36:48.823Z,12.20
2019-02-16T16:39:43.209Z,12.10
2019-02-16T16:42:40.349Z,12.00
2019-02-16T16:45:34.560Z,11.90
2019-02-16T16:48:44.097Z,11.80
2019-02-16T16:51:44.416Z,11.70
2019-02-16T16:54:47.684Z,11.60
2019-02-16T16:57:32.380Z,11.50
2019-02-16T17:00:25.749Z,11.30
2019-02-16T17:03:22.953Z,11.30
2019-02-16T17:06:07.016Z,11.10
2019-02-16T17:09:00.193Z,11.00
2019-02-16T17:11:54.248Z,10.90
2019-02-16T17:14:46.196Z,10.90
2019-02-16T17:17:37.248Z,10.80
2019-02-16T17:20:34.329Z,10.70
2019-02-16T17:23:28.383Z,10.70
2019-02-16T17:26:25.637Z,10.60
2019-02-16T17:29:19.657Z,10.50
2019-02-16T17:32:29.465Z,10.40
2019-02-16T17:35:32.886Z,10.40
2019-02-16T17:38:16.654Z,10.30
2019-02-16T17:41:09.299Z,10.20
2019-02-16T17:43:59.813Z,10.10
2019-02-16T17:47:03.314Z,10.00
2019-02-16T17:49:55.364Z,10.00
2019-02-16T17:52:49.483Z,9.90
2019-02-16T17:55:42.264Z,9.80
2019-02-16T17:58:39.715Z,9.80
2019-02-16T18:01:32.725Z,9.70
2019-02-16T18:04:19.825Z,9.60
2019-02-16T18:07:13.256Z,9.50
2019-02-16T18:09:59.541Z,9.50
2019-02-16T18:12:52.553Z,9.40
2019-02-16T18:15:46.629Z,9.30
2019-02-16T18:18:29.514Z,9.30
2019-02-16T18:21:35.793Z,9.20
2019-02-16T18:24:38.990Z,9.20
2019-02-16T18:27:48.398Z,9.10
2019-02-16T18:30:39.100Z,9.00
2019-02-16T18:33:33.288Z,9.00
2019-02-16T18:36:25.746Z,8.90
2019-02-16T18:39:15.305Z,8.90
2019-02-16T18:42:18.763Z,8.80
2019-02-16T18:45:03.517Z,8.80
2019-02-16T18:48:00.682Z,8.70
2019-02-16T18:51:07.240Z,8.60
2019-02-16T18:53:54.409Z,8.60
2019-02-16T18:56:51.564Z,8.60
2019-02-16T18:59:44.600Z,8.50
2019-02-16T19:02:28.446Z,8.50
2019-02-16T19:05:21.527Z,8.40
2019-02-16T19:08:14.612Z,8.40
2019-02-16T19:11:08.809Z,8.30
2019-02-16T19:14:04.479Z,8.30
2019-02-16T19:17:06.319Z,8.20
2019-02-16T19:20:00.506Z,8.20
2019-02-16T19:23:12.997Z,8.10
2019-02-16T19:26:03.311Z,8.10
2019-02-16T19:28:56.519Z,8.10
2019-02-16T19:31:53.642Z,8.00
2019-02-16T19:34:54.004Z,8.00
2019-02-16T19:37:37.480Z,7.90
2019-02-16T19:40:26.144Z,7.90
2019-02-16T19:43:32.641Z,7.90
2019-02-16T19:46:18.601Z,7.80
2019-02-16T19:49:05.075Z,7.80
2019-02-16T19:52:02.165Z,7.70
2019-02-16T19:54:59.035Z,7.70
2019-02-16T19:57:52.241Z,7.70
2019-02-16T20:00:49.489Z,7.60
2019-02-16T20:03:49.238Z,7.60
2019-02-16T20:06:46.327Z,7.60
2019-02-16T20:09:30.482Z,7.50
2019-02-16T20:12:20.746Z,7.50
2019-02-16T20:15:14.945Z,7.50
2019-02-16T20:18:06.358Z,7.40
2019-02-16T20:20:50.298Z,7.40
2019-02-16T20:23:56.486Z,7.40
2019-02-16T20:26:56.445Z,7.30
2019-02-16T20:29:53.293Z,7.30
2019-02-16T20:32:47.618Z,7.20
2019-02-16T20:35:48.002Z,7.20
2019-02-16T20:38:30.179Z,7.20
2019-02-16T20:41:16.374Z,7.10
2019-02-16T20:44:09.431Z,7.10
2019-02-16T20:47:01.572Z,7.10
2019-02-16T20:49:55.715Z,7.00
2019-02-16T20:53:08.462Z,7.00
2019-02-16T20:55:49.821Z,7.00
2019-02-16T20:58:49.787Z,6.90
2019-02-16T21:01:46.715Z,6.90
2019-02-16T21:04:46.562Z,6.90
2019-02-16T21:07:39.463Z,6.90
2019-02-16T21:10:39.812Z,6.90
2019-02-16T21:13:52.426Z,6.80
2019-02-16T21:16:49.552Z,6.80
2019-02-16T21:19:52.501Z,6.80
2019-02-16T21:22:46.684Z,6.70
2019-02-16T21:25:47.978Z,6.70
2019-02-16T21:28:29.881Z,6.70
2019-02-16T21:31:23.009Z,6.60
2019-02-16T21:34:03.901Z,6.60
2019-02-16T21:36:56.387Z,6.60
2019-02-16T21:39:37.753Z,6.60
2019-02-16T21:42:27.803Z,6.60
2019-02-16T21:45:21.131Z,6.60
2019-02-16T21:48:20.188Z,6.50
2019-02-16T21:51:29.730Z,6.50
2019-02-16T21:54:23.471Z,6.50
2019-02-16T21:57:18.923Z,6.50
2019-02-16T22:00:13.072Z,6.50
2019-02-16T22:03:05.445Z,6.40
2019-02-16T22:06:02.863Z,6.40
2019-02-16T22:08:55.891Z,6.40
2019-02-16T22:11:42.267Z,6.40
2019-02-16T22:14:17.545Z,6.40
2019-02-16T22:16:52.836Z,6.40
2019-02-16T22:19:28.183Z,6.30
2019-02-16T22:22:03.477Z,6.30
2019-02-16T22:24:38.690Z,6.30
2019-02-16T22:27:13.909Z,6.30
2019-02-16T22:29:49.037Z,6.30
2019-02-16T22:32:24.202Z,6.30
2019-02-16T22:34:59.418Z,6.20
2019-02-16T22:37:34.632Z,6.20
2019-02-16T22:40:09.919Z,6.20
2019-02-16T22:42:45.203Z,6.20
2019-02-16T22:45:20.467Z,6.20
2019-02-16T22:47:55.565Z,6.20
2019-02-16T22:50:30.737Z,6.20
2019-02-16T22:53:05.906Z,6.20
2019-02-16T22:55:41.220Z,6.10
2019-02-16T22:58:16.348Z,6.10
2019-02-16T23:00:52.378Z,6.10
2019-02-16T23:03:27.695Z,6.10
2019-02-16T23:06:02.910Z,6.10
2019-02-16T23:08:38.134Z,6.00
2019-02-16T23:11:13.520Z,6.00
2019-02-16T23:13:48.668Z,6.00
2019-02-16T23:16:23.815Z,6.00
2019-02-16T23:18:59.059Z,6.00
2019-02-16T23:21:34.368Z,6.00
2019-02-16T23:24:09.545Z,5.90
2019-02-16T23:26:44.692Z,5.90
2019-02-16T23:29:19.930Z,6.00
2019-02-16T23:31:55.168Z,5.90
2019-02-16T23:34:30.409Z,5.90
2019-02-16T23:37:05.638Z,5.90
2019-02-16T23:39:40.951Z,5.90
2019-02-16T23:42:16.150Z,5.90
2019-02-16T23:44:51.303Z,5.90
2019-02-16T23:47:26.624Z,5.80
2019-02-16T23:50:01.843Z,5.80
2019-02-16T23:52:37.137Z,5.80
2019-02-16T23:55:12.292Z,5.80
2019-02-16T23:57:47.581Z,5.80
